sensor_id;sensor_type;location;lat;lon;timestamp;P1;durP1;ratioP1;P2;durP2;ratioP2
28762;SDS011;15918;51.270;6.522;2022-07-10T00:01:47;2.03;;;1.23;;
28762;SDS011;15918;51.270;6.522;2022-07-10T00:04:12;5.20;;;2.10;;
28762;SDS011;15918;51.270;6.522;2022-07-10T00:06:38;3.05;;;1.70;;
28762;SDS011;15918;51.270;6.522;2022-07-10T00:09:06;3.67;;;1.50;;
28762;SDS011;15918;51.270;6.522;2022-07-10T00:11:32;9.98;;;1.88;;
28762;SDS011;15918;51.270;6.522;2022-07-10T00:13:58;5.82;;;1.73;;
28762;SDS011;15918;51.270;6.522;2022-07-10T00:16:24;4.20;;;1.73;;
28762;SDS011;15918;51.270;6.522;2022-07-10T00:18:49;7.32;;;1.83;;
28762;SDS011;15918;51.270;6.522;2022-07-10T00:21:15;3.70;;;1.70;;
28762;SDS011;15918;51.270;6.522;2022-07-10T00:23:41;3.30;;;1.48;;
28762;SDS011;15918;51.270;6.522;2022-07-10T00:26:07;3.50;;;1.65;;
28762;SDS011;15918;51.270;6.522;2022-07-10T00:28:32;3.72;;;1.67;;
28762;SDS011;15918;51.270;6.522;2022-07-10T00:30:58;6.30;;;1.60;;
28762;SDS011;15918;51.270;6.522;2022-07-10T00:33:24;7.10;;;1.85;;
28762;SDS011;15918;51.270;6.522;2022-07-10T00:35:49;4.13;;;1.60;;
28762;SDS011;15918;51.270;6.522;2022-07-10T00:38:15;7.35;;;2.22;;
28762;SDS011;15918;51.270;6.522;2022-07-10T00:40:40;5.40;;;1.52;;
28762;SDS011;15918;51.270;6.522;2022-07-10T00:43:09;4.25;;;1.30;;
28762;SDS011;15918;51.270;6.522;2022-07-10T00:45:35;4.40;;;2.40;;
28762;SDS011;15918;51.270;6.522;2022-07-10T00:48:00;4.60;;;1.65;;
28762;SDS011;15918;51.270;6.522;2022-07-10T00:50:26;6.22;;;1.73;;
28762;SDS011;15918;51.270;6.522;2022-07-10T00:52:52;3.92;;;1.38;;
28762;SDS011;15918;51.270;6.522;2022-07-10T00:55:18;4.93;;;1.58;;
28762;SDS011;15918;51.270;6.522;2022-07-10T00:57:44;4.63;;;1.67;;
28762;SDS011;15918;51.270;6.522;2022-07-10T01:00:10;5.57;;;1.50;;
28762;SDS011;15918;51.270;6.522;2022-07-10T01:02:37;3.92;;;1.42;;
28762;SDS011;15918;51.270;6.522;2022-07-10T01:05:06;4.80;;;1.90;;
28762;SDS011;15918;51.270;6.522;2022-07-10T01:07:31;4.55;;;1.50;;
28762;SDS011;15918;51.270;6.522;2022-07-10T01:09:57;6.50;;;1.90;;
28762;SDS011;15918;51.270;6.522;2022-07-10T01:12:24;5.65;;;1.85;;
28762;SDS011;15918;51.270;6.522;2022-07-10T01:14:50;5.55;;;1.95;;
28762;SDS011;15918;51.270;6.522;2022-07-10T01:17:16;5.72;;;1.50;;
28762;SDS011;15918;51.270;6.522;2022-07-10T01:19:42;5.75;;;1.70;;
28762;SDS011;15918;51.270;6.522;2022-07-10T01:22:07;3.40;;;1.30;;
28762;SDS011;15918;51.270;6.522;2022-07-10T01:24:33;5.85;;;2.33;;
28762;SDS011;15918;51.270;6.522;2022-07-10T01:26:59;4.90;;;1.88;;
28762;SDS011;15918;51.270;6.522;2022-07-10T01:29:25;5.22;;;1.70;;
28762;SDS011;15918;51.270;6.522;2022-07-10T01:31:51;5.50;;;1.70;;
28762;SDS011;15918;51.270;6.522;2022-07-10T01:34:17;3.83;;;1.40;;
28762;SDS011;15918;51.270;6.522;2022-07-10T01:36:43;4.47;;;1.60;;
28762;SDS011;15918;51.270;6.522;2022-07-10T01:39:08;4.70;;;1.75;;
28762;SDS011;15918;51.270;6.522;2022-07-10T01:41:34;4.82;;;1.83;;
28762;SDS011;15918;51.270;6.522;2022-07-10T01:44:00;5.65;;;2.00;;
28762;SDS011;15918;51.270;6.522;2022-07-10T01:46:26;6.07;;;1.63;;
28762;SDS011;15918;51.270;6.522;2022-07-10T01:48:52;4.40;;;1.60;;
28762;SDS011;15918;51.270;6.522;2022-07-10T01:51:18;6.82;;;1.98;;
28762;SDS011;15918;51.270;6.522;2022-07-10T01:53:45;5.32;;;1.75;;
28762;SDS011;15918;51.270;6.522;2022-07-10T01:56:11;4.03;;;1.83;;
28762;SDS011;15918;51.270;6.522;2022-07-10T01:58:38;6.50;;;1.88;;
28762;SDS011;15918;51.270;6.522;2022-07-10T02:01:04;5.95;;;1.80;;
28762;SDS011;15918;51.270;6.522;2022-07-10T02:03:31;2.83;;;1.50;;
28762;SDS011;15918;51.270;6.522;2022-07-10T02:06:15;7.22;;;1.95;;
28762;SDS011;15918;51.270;6.522;2022-07-10T02:08:41;4.47;;;1.92;;
28762;SDS011;15918;51.270;6.522;2022-07-10T02:11:07;5.80;;;2.03;;
28762;SDS011;15918;51.270;6.522;2022-07-10T02:13:33;3.20;;;1.48;;
28762;SDS011;15918;51.270;6.522;2022-07-10T02:15:59;2.97;;;1.23;;
28762;SDS011;15918;51.270;6.522;2022-07-10T02:18:24;5.13;;;1.88;;
28762;SDS011;15918;51.270;6.522;2022-07-10T02:20:50;4.90;;;2.17;;
28762;SDS011;15918;51.270;6.522;2022-07-10T02:23:16;3.58;;;1.55;;
28762;SDS011;15918;51.270;6.522;2022-07-10T02:25:42;5.65;;;1.70;;
28762;SDS011;15918;51.270;6.522;2022-07-10T02:28:09;3.95;;;1.60;;
28762;SDS011;15918;51.270;6.522;2022-07-10T02:30:35;3.88;;;1.60;;
28762;SDS011;15918;51.270;6.522;2022-07-10T02:33:00;4.32;;;1.90;;
28762;SDS011;15918;51.270;6.522;2022-07-10T02:35:26;4.68;;;1.77;;
28762;SDS011;15918;51.270;6.522;2022-07-10T02:37:52;3.47;;;1.70;;
28762;SDS011;15918;51.270;6.522;2022-07-10T02:40:17;6.13;;;2.10;;
28762;SDS011;15918;51.270;6.522;2022-07-10T02:42:43;5.30;;;1.98;;
28762;SDS011;15918;51.270;6.522;2022-07-10T02:45:08;3.30;;;1.70;;
28762;SDS011;15918;51.270;6.522;2022-07-10T02:47:34;5.13;;;2.10;;
28762;SDS011;15918;51.270;6.522;2022-07-10T02:50:00;5.75;;;2.35;;
28762;SDS011;15918;51.270;6.522;2022-07-10T02:52:26;5.70;;;1.92;;
28762;SDS011;15918;51.270;6.522;2022-07-10T02:54:52;6.07;;;2.15;;
28762;SDS011;15918;51.270;6.522;2022-07-10T02:57:18;6.22;;;1.90;;
28762;SDS011;15918;51.270;6.522;2022-07-10T02:59:43;4.20;;;2.00;;
28762;SDS011;15918;51.270;6.522;2022-07-10T03:02:09;4.70;;;2.30;;
28762;SDS011;15918;51.270;6.522;2022-07-10T03:04:34;4.43;;;2.03;;
28762;SDS011;15918;51.270;6.522;2022-07-10T03:07:00;5.20;;;2.15;;
28762;SDS011;15918;51.270;6.522;2022-07-10T03:09:26;5.60;;;1.95;;
28762;SDS011;15918;51.270;6.522;2022-07-10T03:11:52;4.35;;;1.95;;
28762;SDS011;15918;51.270;6.522;2022-07-10T03:14:17;3.92;;;1.77;;
28762;SDS011;15918;51.270;6.522;2022-07-10T03:16:43;5.03;;;2.17;;
28762;SDS011;15918;51.270;6.522;2022-07-10T03:19:09;4.38;;;1.98;;
28762;SDS011;15918;51.270;6.522;2022-07-10T03:21:34;6.75;;;2.00;;
28762;SDS011;15918;51.270;6.522;2022-07-10T03:24:00;6.75;;;2.13;;
28762;SDS011;15918;51.270;6.522;2022-07-10T03:26:26;4.93;;;2.13;;
28762;SDS011;15918;51.270;6.522;2022-07-10T03:28:54;8.35;;;2.60;;
28762;SDS011;15918;51.270;6.522;2022-07-10T03:31:20;4.18;;;1.95;;
28762;SDS011;15918;51.270;6.522;2022-07-10T03:33:45;3.97;;;2.15;;
28762;SDS011;15918;51.270;6.522;2022-07-10T03:36:11;4.95;;;1.80;;
28762;SDS011;15918;51.270;6.522;2022-07-10T03:38:38;4.28;;;2.40;;
28762;SDS011;15918;51.270;6.522;2022-07-10T03:41:04;5.28;;;2.40;;
28762;SDS011;15918;51.270;6.522;2022-07-10T03:43:30;8.48;;;2.83;;
28762;SDS011;15918;51.270;6.522;2022-07-10T03:45:56;9.23;;;2.70;;
28762;SDS011;15918;51.270;6.522;2022-07-10T03:48:22;3.95;;;2.50;;
28762;SDS011;15918;51.270;6.522;2022-07-10T03:50:51;3.88;;;2.05;;
28762;SDS011;15918;51.270;6.522;2022-07-10T03:53:18;4.88;;;2.22;;
28762;SDS011;15918;51.270;6.522;2022-07-10T03:55:44;8.80;;;2.60;;
28762;SDS011;15918;51.270;6.522;2022-07-10T03:58:10;5.93;;;2.10;;
28762;SDS011;15918;51.270;6.522;2022-07-10T04:00:35;6.40;;;2.38;;
28762;SDS011;15918;51.270;6.522;2022-07-10T04:03:06;5.97;;;2.42;;
28762;SDS011;15918;51.270;6.522;2022-07-10T04:05:32;4.03;;;2.10;;
28762;SDS011;15918;51.270;6.522;2022-07-10T04:07:58;5.53;;;2.33;;
28762;SDS011;15918;51.270;6.522;2022-07-10T04:10:25;7.00;;;2.22;;
28762;SDS011;15918;51.270;6.522;2022-07-10T04:12:52;5.22;;;2.15;;
28762;SDS011;15918;51.270;6.522;2022-07-10T04:15:18;4.53;;;2.42;;
28762;SDS011;15918;51.270;6.522;2022-07-10T04:17:44;3.45;;;1.90;;
28762;SDS011;15918;51.270;6.522;2022-07-10T04:20:10;6.38;;;2.60;;
28762;SDS011;15918;51.270;6.522;2022-07-10T04:22:36;9.20;;;2.60;;
28762;SDS011;15918;51.270;6.522;2022-07-10T04:25:02;4.28;;;2.20;;
28762;SDS011;15918;51.270;6.522;2022-07-10T04:27:29;5.72;;;2.15;;
28762;SDS011;15918;51.270;6.522;2022-07-10T04:29:55;5.90;;;2.30;;
28762;SDS011;15918;51.270;6.522;2022-07-10T04:32:21;7.15;;;2.33;;
28762;SDS011;15918;51.270;6.522;2022-07-10T04:34:46;7.10;;;2.13;;
28762;SDS011;15918;51.270;6.522;2022-07-10T04:37:12;5.97;;;2.72;;
28762;SDS011;15918;51.270;6.522;2022-07-10T04:39:38;4.68;;;2.15;;
28762;SDS011;15918;51.270;6.522;2022-07-10T04:42:04;5.93;;;2.55;;
28762;SDS011;15918;51.270;6.522;2022-07-10T04:44:32;4.95;;;2.17;;
28762;SDS011;15918;51.270;6.522;2022-07-10T04:46:58;8.52;;;2.90;;
28762;SDS011;15918;51.270;6.522;2022-07-10T04:49:24;5.85;;;2.47;;
28762;SDS011;15918;51.270;6.522;2022-07-10T04:51:50;4.45;;;2.53;;
28762;SDS011;15918;51.270;6.522;2022-07-10T04:54:16;7.10;;;2.33;;
28762;SDS011;15918;51.270;6.522;2022-07-10T04:56:41;6.28;;;2.75;;
28762;SDS011;15918;51.270;6.522;2022-07-10T04:59:07;5.57;;;2.70;;
28762;SDS011;15918;51.270;6.522;2022-07-10T05:01:34;5.82;;;2.67;;
28762;SDS011;15918;51.270;6.522;2022-07-10T05:04:00;10.20;;;2.65;;
28762;SDS011;15918;51.270;6.522;2022-07-10T05:06:26;5.53;;;2.10;;
28762;SDS011;15918;51.270;6.522;2022-07-10T05:08:51;3.40;;;2.28;;
28762;SDS011;15918;51.270;6.522;2022-07-10T05:11:18;6.60;;;3.13;;
28762;SDS011;15918;51.270;6.522;2022-07-10T05:13:44;8.88;;;2.80;;
28762;SDS011;15918;51.270;6.522;2022-07-10T05:16:11;5.05;;;2.17;;
28762;SDS011;15918;51.270;6.522;2022-07-10T05:18:38;3.58;;;1.90;;
28762;SDS011;15918;51.270;6.522;2022-07-10T05:21:05;9.38;;;2.75;;
28762;SDS011;15918;51.270;6.522;2022-07-10T05:23:31;5.18;;;2.53;;
28762;SDS011;15918;51.270;6.522;2022-07-10T05:25:56;4.00;;;2.38;;
28762;SDS011;15918;51.270;6.522;2022-07-10T05:28:22;7.07;;;2.50;;
28762;SDS011;15918;51.270;6.522;2022-07-10T05:30:48;4.82;;;2.30;;
28762;SDS011;15918;51.270;6.522;2022-07-10T05:33:14;8.10;;;2.42;;
28762;SDS011;15918;51.270;6.522;2022-07-10T05:35:40;5.35;;;2.05;;
28762;SDS011;15918;51.270;6.522;2022-07-10T05:38:06;4.50;;;2.20;;
28762;SDS011;15918;51.270;6.522;2022-07-10T05:40:32;6.45;;;2.00;;
28762;SDS011;15918;51.270;6.522;2022-07-10T05:42:58;7.00;;;2.55;;
28762;SDS011;15918;51.270;6.522;2022-07-10T05:45:23;4.40;;;2.15;;
28762;SDS011;15918;51.270;6.522;2022-07-10T05:47:49;6.68;;;2.75;;
28762;SDS011;15918;51.270;6.522;2022-07-10T05:50:15;3.70;;;2.20;;
28762;SDS011;15918;51.270;6.522;2022-07-10T05:52:41;6.38;;;2.53;;
28762;SDS011;15918;51.270;6.522;2022-07-10T05:55:07;6.43;;;2.40;;
28762;SDS011;15918;51.270;6.522;2022-07-10T05:57:33;6.07;;;2.42;;
28762;SDS011;15918;51.270;6.522;2022-07-10T05:59:59;7.75;;;2.65;;
28762;SDS011;15918;51.270;6.522;2022-07-10T06:02:25;9.23;;;2.35;;
28762;SDS011;15918;51.270;6.522;2022-07-10T06:04:51;5.93;;;2.63;;
28762;SDS011;15918;51.270;6.522;2022-07-10T06:07:17;7.68;;;2.40;;
28762;SDS011;15918;51.270;6.522;2022-07-10T06:09:43;7.10;;;2.13;;
28762;SDS011;15918;51.270;6.522;2022-07-10T06:12:09;9.48;;;2.80;;
28762;SDS011;15918;51.270;6.522;2022-07-10T06:14:34;4.95;;;1.90;;
28762;SDS011;15918;51.270;6.522;2022-07-10T06:17:00;6.50;;;2.42;;
28762;SDS011;15918;51.270;6.522;2022-07-10T06:19:26;6.88;;;2.08;;
28762;SDS011;15918;51.270;6.522;2022-07-10T06:21:52;6.60;;;2.55;;
28762;SDS011;15918;51.270;6.522;2022-07-10T06:24:38;7.53;;;2.38;;
28762;SDS011;15918;51.270;6.522;2022-07-10T06:27:04;4.50;;;1.80;;
28762;SDS011;15918;51.270;6.522;2022-07-10T06:29:30;4.50;;;2.13;;
28762;SDS011;15918;51.270;6.522;2022-07-10T06:31:56;9.23;;;2.53;;
28762;SDS011;15918;51.270;6.522;2022-07-10T06:34:21;4.20;;;2.15;;
28762;SDS011;15918;51.270;6.522;2022-07-10T06:36:47;5.28;;;2.38;;
28762;SDS011;15918;51.270;6.522;2022-07-10T06:39:13;8.40;;;2.17;;
28762;SDS011;15918;51.270;6.522;2022-07-10T06:41:38;5.72;;;2.30;;
28762;SDS011;15918;51.270;6.522;2022-07-10T06:44:05;6.82;;;2.10;;
28762;SDS011;15918;51.270;6.522;2022-07-10T06:46:31;8.57;;;2.50;;
28762;SDS011;15918;51.270;6.522;2022-07-10T06:48:57;6.55;;;2.20;;
28762;SDS011;15918;51.270;6.522;2022-07-10T06:51:23;5.00;;;2.50;;
28762;SDS011;15918;51.270;6.522;2022-07-10T06:53:49;9.27;;;2.70;;
28762;SDS011;15918;51.270;6.522;2022-07-10T06:56:15;8.13;;;3.10;;
28762;SDS011;15918;51.270;6.522;2022-07-10T06:58:41;6.93;;;2.78;;
28762;SDS011;15918;51.270;6.522;2022-07-10T07:01:07;10.07;;;2.60;;
28762;SDS011;15918;51.270;6.522;2022-07-10T07:03:33;7.40;;;2.30;;
28762;SDS011;15918;51.270;6.522;2022-07-10T07:05:59;5.43;;;2.70;;
28762;SDS011;15918;51.270;6.522;2022-07-10T07:08:24;6.13;;;2.70;;
28762;SDS011;15918;51.270;6.522;2022-07-10T07:10:50;8.73;;;2.63;;
28762;SDS011;15918;51.270;6.522;2022-07-10T07:13:16;8.10;;;3.42;;
28762;SDS011;15918;51.270;6.522;2022-07-10T07:15:42;6.10;;;2.28;;
28762;SDS011;15918;51.270;6.522;2022-07-10T07:18:13;9.68;;;2.40;;
28762;SDS011;15918;51.270;6.522;2022-07-10T07:20:41;6.65;;;2.47;;
28762;SDS011;15918;51.270;6.522;2022-07-10T07:23:25;5.20;;;2.22;;
28762;SDS011;15918;51.270;6.522;2022-07-10T07:25:52;7.40;;;2.42;;
28762;SDS011;15918;51.270;6.522;2022-07-10T07:28:18;6.97;;;2.70;;
28762;SDS011;15918;51.270;6.522;2022-07-10T07:30:47;6.45;;;2.30;;
28762;SDS011;15918;51.270;6.522;2022-07-10T07:33:14;5.65;;;2.40;;
28762;SDS011;15918;51.270;6.522;2022-07-10T07:35:40;7.88;;;2.45;;
28762;SDS011;15918;51.270;6.522;2022-07-10T07:38:05;9.80;;;2.30;;
28762;SDS011;15918;51.270;6.522;2022-07-10T07:40:31;7.68;;;2.25;;
28762;SDS011;15918;51.270;6.522;2022-07-10T07:42:57;6.43;;;2.30;;
28762;SDS011;15918;51.270;6.522;2022-07-10T07:45:24;8.30;;;2.65;;
28762;SDS011;15918;51.270;6.522;2022-07-10T07:47:51;6.50;;;2.30;;
28762;SDS011;15918;51.270;6.522;2022-07-10T07:50:23;5.78;;;2.25;;
28762;SDS011;15918;51.270;6.522;2022-07-10T07:52:51;5.13;;;1.80;;
28762;SDS011;15918;51.270;6.522;2022-07-10T07:55:18;11.20;;;2.30;;
28762;SDS011;15918;51.270;6.522;2022-07-10T07:57:45;6.28;;;1.95;;
28762;SDS011;15918;51.270;6.522;2022-07-10T08:00:12;7.30;;;2.15;;
28762;SDS011;15918;51.270;6.522;2022-07-10T08:02:38;6.00;;;2.05;;
28762;SDS011;15918;51.270;6.522;2022-07-10T08:05:05;6.25;;;2.40;;
28762;SDS011;15918;51.270;6.522;2022-07-10T08:10:04;6.63;;;2.03;;
28762;SDS011;15918;51.270;6.522;2022-07-10T08:12:32;6.07;;;2.40;;
28762;SDS011;15918;51.270;6.522;2022-07-10T08:14:58;9.02;;;2.22;;
28762;SDS011;15918;51.270;6.522;2022-07-10T08:17:25;5.80;;;1.83;;
28762;SDS011;15918;51.270;6.522;2022-07-10T08:19:51;7.57;;;2.17;;
28762;SDS011;15918;51.270;6.522;2022-07-10T08:22:16;7.15;;;2.30;;
28762;SDS011;15918;51.270;6.522;2022-07-10T08:24:42;7.38;;;2.00;;
28762;SDS011;15918;51.270;6.522;2022-07-10T08:27:08;5.35;;;2.00;;
28762;SDS011;15918;51.270;6.522;2022-07-10T08:29:33;7.80;;;2.67;;
28762;SDS011;15918;51.270;6.522;2022-07-10T08:31:59;6.05;;;2.40;;
28762;SDS011;15918;51.270;6.522;2022-07-10T08:34:25;5.25;;;2.20;;
28762;SDS011;15918;51.270;6.522;2022-07-10T08:36:52;7.63;;;2.35;;
28762;SDS011;15918;51.270;6.522;2022-07-10T08:39:18;6.95;;;2.63;;
28762;SDS011;15918;51.270;6.522;2022-07-10T08:41:46;7.85;;;2.47;;
28762;SDS011;15918;51.270;6.522;2022-07-10T08:44:15;10.70;;;2.20;;
28762;SDS011;15918;51.270;6.522;2022-07-10T08:46:45;10.00;;;2.40;;
28762;SDS011;15918;51.270;6.522;2022-07-10T08:49:11;6.93;;;1.92;;
28762;SDS011;15918;51.270;6.522;2022-07-10T08:51:47;7.40;;;2.25;;
28762;SDS011;15918;51.270;6.522;2022-07-10T08:54:28;6.63;;;2.28;;
28762;SDS011;15918;51.270;6.522;2022-07-10T08:56:59;9.77;;;1.98;;
28762;SDS011;15918;51.270;6.522;2022-07-10T08:59:26;10.13;;;2.97;;
28762;SDS011;15918;51.270;6.522;2022-07-10T09:01:52;9.57;;;2.75;;
28762;SDS011;15918;51.270;6.522;2022-07-10T09:04:21;5.28;;;1.95;;
28762;SDS011;15918;51.270;6.522;2022-07-10T09:06:51;8.20;;;2.55;;
28762;SDS011;15918;51.270;6.522;2022-07-10T09:09:18;9.57;;;3.15;;
28762;SDS011;15918;51.270;6.522;2022-07-10T09:11:44;7.93;;;2.38;;
28762;SDS011;15918;51.270;6.522;2022-07-10T09:14:11;8.32;;;2.45;;
28762;SDS011;15918;51.270;6.522;2022-07-10T09:16:43;7.13;;;2.65;;
28762;SDS011;15918;51.270;6.522;2022-07-10T09:21:48;9.20;;;2.58;;
28762;SDS011;15918;51.270;6.522;2022-07-10T09:24:19;5.35;;;2.38;;
28762;SDS011;15918;51.270;6.522;2022-07-10T09:29:21;6.13;;;2.42;;
28762;SDS011;15918;51.270;6.522;2022-07-10T09:31:56;8.10;;;2.40;;
28762;SDS011;15918;51.270;6.522;2022-07-10T09:34:36;8.75;;;2.90;;
28762;SDS011;15918;51.270;6.522;2022-07-10T09:37:17;5.38;;;2.30;;
28762;SDS011;15918;51.270;6.522;2022-07-10T09:42:30;6.78;;;2.30;;
28762;SDS011;15918;51.270;6.522;2022-07-10T09:45:12;4.03;;;2.00;;
28762;SDS011;15918;51.270;6.522;2022-07-10T09:50:29;4.68;;;2.03;;
28762;SDS011;15918;51.270;6.522;2022-07-10T09:53:00;3.60;;;1.60;;
28762;SDS011;15918;51.270;6.522;2022-07-10T09:55:31;3.35;;;1.58;;
28762;SDS011;15918;51.270;6.522;2022-07-10T09:58:07;4.05;;;1.77;;
28762;SDS011;15918;51.270;6.522;2022-07-10T10:00:37;4.60;;;2.03;;
28762;SDS011;15918;51.270;6.522;2022-07-10T10:05:42;4.43;;;1.63;;
28762;SDS011;15918;51.270;6.522;2022-07-10T10:08:44;3.80;;;1.70;;
28762;SDS011;15918;51.270;6.522;2022-07-10T10:11:24;2.97;;;1.52;;
28762;SDS011;15918;51.270;6.522;2022-07-10T10:13:51;3.10;;;1.67;;
28762;SDS011;15918;51.270;6.522;2022-07-10T10:16:21;2.78;;;1.40;;
28762;SDS011;15918;51.270;6.522;2022-07-10T10:18:47;5.20;;;1.77;;
28762;SDS011;15918;51.270;6.522;2022-07-10T10:21:34;5.00;;;1.60;;
28762;SDS011;15918;51.270;6.522;2022-07-10T10:24:01;2.13;;;1.75;;
28762;SDS011;15918;51.270;6.522;2022-07-10T10:26:28;8.52;;;2.50;;
28762;SDS011;15918;51.270;6.522;2022-07-10T10:28:54;2.70;;;1.60;;
28762;SDS011;15918;51.270;6.522;2022-07-10T10:31:22;4.40;;;2.33;;
28762;SDS011;15918;51.270;6.522;2022-07-10T10:33:49;3.63;;;1.80;;
28762;SDS011;15918;51.270;6.522;2022-07-10T10:39:10;3.75;;;1.75;;
28762;SDS011;15918;51.270;6.522;2022-07-10T10:41:53;6.50;;;2.22;;
28762;SDS011;15918;51.270;6.522;2022-07-10T10:44:20;6.18;;;2.22;;
28762;SDS011;15918;51.270;6.522;2022-07-10T10:49:15;4.60;;;2.05;;
28762;SDS011;15918;51.270;6.522;2022-07-10T10:54:26;2.80;;;2.05;;
28762;SDS011;15918;51.270;6.522;2022-07-10T10:57:12;4.22;;;1.45;;
28762;SDS011;15918;51.270;6.522;2022-07-10T10:59:45;4.95;;;1.80;;
28762;SDS011;15918;51.270;6.522;2022-07-10T11:02:30;5.40;;;2.15;;
28762;SDS011;15918;51.270;6.522;2022-07-10T11:07:58;8.60;;;2.28;;
28762;SDS011;15918;51.270;6.522;2022-07-10T11:10:28;3.13;;;1.77;;
28762;SDS011;15918;51.270;6.522;2022-07-10T11:12:57;4.40;;;2.30;;
28762;SDS011;15918;51.270;6.522;2022-07-10T11:15:31;2.88;;;1.50;;
28762;SDS011;15918;51.270;6.522;2022-07-10T11:17:58;3.70;;;1.73;;
28762;SDS011;15918;51.270;6.522;2022-07-10T11:20:34;2.50;;;1.40;;
28762;SDS011;15918;51.270;6.522;2022-07-10T11:25:50;3.45;;;1.70;;
28762;SDS011;15918;51.270;6.522;2022-07-10T11:28:28;5.28;;;1.80;;
28762;SDS011;15918;51.270;6.522;2022-07-10T11:31:18;6.25;;;1.60;;
28762;SDS011;15918;51.270;6.522;2022-07-10T11:33:54;6.55;;;2.00;;
28762;SDS011;15918;51.270;6.522;2022-07-10T11:38:55;4.38;;;1.52;;
28762;SDS011;15918;51.270;6.522;2022-07-10T11:41:23;2.33;;;1.52;;
28762;SDS011;15918;51.270;6.522;2022-07-10T11:43:49;6.45;;;2.33;;
28762;SDS011;15918;51.270;6.522;2022-07-10T11:46:16;5.78;;;2.10;;
28762;SDS011;15918;51.270;6.522;2022-07-10T11:48:43;3.95;;;1.98;;
28762;SDS011;15918;51.270;6.522;2022-07-10T11:56:32;4.85;;;2.28;;
28762;SDS011;15918;51.270;6.522;2022-07-10T11:59:00;5.05;;;2.00;;
28762;SDS011;15918;51.270;6.522;2022-07-10T12:01:32;4.10;;;1.90;;
28762;SDS011;15918;51.270;6.522;2022-07-10T12:04:03;6.53;;;2.17;;
28762;SDS011;15918;51.270;6.522;2022-07-10T12:06:31;8.00;;;2.15;;
28762;SDS011;15918;51.270;6.522;2022-07-10T12:09:02;5.28;;;2.40;;
28762;SDS011;15918;51.270;6.522;2022-07-10T12:11:29;6.45;;;2.42;;
28762;SDS011;15918;51.270;6.522;2022-07-10T12:14:07;6.18;;;2.60;;
28762;SDS011;15918;51.270;6.522;2022-07-10T12:16:44;8.13;;;2.63;;
28762;SDS011;15918;51.270;6.522;2022-07-10T12:19:14;6.38;;;2.30;;
28762;SDS011;15918;51.270;6.522;2022-07-10T12:21:42;4.93;;;2.60;;
28762;SDS011;15918;51.270;6.522;2022-07-10T12:24:09;5.03;;;2.20;;
28762;SDS011;15918;51.270;6.522;2022-07-10T12:26:36;6.97;;;2.22;;
28762;SDS011;15918;51.270;6.522;2022-07-10T12:29:04;3.90;;;2.08;;
28762;SDS011;15918;51.270;6.522;2022-07-10T12:31:31;6.75;;;2.42;;
28762;SDS011;15918;51.270;6.522;2022-07-10T12:34:02;5.90;;;2.65;;
28762;SDS011;15918;51.270;6.522;2022-07-10T12:39:10;9.27;;;2.15;;
28762;SDS011;15918;51.270;6.522;2022-07-10T12:41:55;9.95;;;2.30;;
28762;SDS011;15918;51.270;6.522;2022-07-10T12:47:03;5.07;;;2.28;;
28762;SDS011;15918;51.270;6.522;2022-07-10T12:52:24;6.82;;;2.83;;
28762;SDS011;15918;51.270;6.522;2022-07-10T12:57:55;6.90;;;3.05;;
28762;SDS011;15918;51.270;6.522;2022-07-10T13:00:25;5.45;;;3.08;;
28762;SDS011;15918;51.270;6.522;2022-07-10T13:05:34;5.50;;;2.40;;
28762;SDS011;15918;51.270;6.522;2022-07-10T13:08:06;5.65;;;2.65;;
28762;SDS011;15918;51.270;6.522;2022-07-10T13:10:33;4.80;;;2.60;;
28762;SDS011;15918;51.270;6.522;2022-07-10T13:13:01;6.30;;;3.15;;
28762;SDS011;15918;51.270;6.522;2022-07-10T13:15:27;6.38;;;3.00;;
28762;SDS011;15918;51.270;6.522;2022-07-10T13:17:54;6.85;;;2.92;;
28762;SDS011;15918;51.270;6.522;2022-07-10T13:20:20;6.45;;;2.42;;
28762;SDS011;15918;51.270;6.522;2022-07-10T13:22:46;6.97;;;2.58;;
28762;SDS011;15918;51.270;6.522;2022-07-10T13:25:11;4.60;;;2.45;;
28762;SDS011;15918;51.270;6.522;2022-07-10T13:27:37;5.93;;;2.67;;
28762;SDS011;15918;51.270;6.522;2022-07-10T13:30:03;6.03;;;2.88;;
28762;SDS011;15918;51.270;6.522;2022-07-10T13:32:30;8.88;;;3.17;;
28762;SDS011;15918;51.270;6.522;2022-07-10T13:34:55;5.57;;;2.50;;
28762;SDS011;15918;51.270;6.522;2022-07-10T13:37:21;5.60;;;2.55;;
28762;SDS011;15918;51.270;6.522;2022-07-10T13:39:46;3.40;;;2.42;;
28762;SDS011;15918;51.270;6.522;2022-07-10T13:42:12;7.60;;;2.92;;
28762;SDS011;15918;51.270;6.522;2022-07-10T13:44:38;8.45;;;2.55;;
28762;SDS011;15918;51.270;6.522;2022-07-10T13:47:03;3.45;;;2.60;;
28762;SDS011;15918;51.270;6.522;2022-07-10T13:49:29;7.68;;;3.10;;
28762;SDS011;15918;51.270;6.522;2022-07-10T13:51:55;6.35;;;2.80;;
28762;SDS011;15918;51.270;6.522;2022-07-10T13:54:21;8.10;;;2.75;;
28762;SDS011;15918;51.270;6.522;2022-07-10T13:56:46;8.68;;;2.92;;
28762;SDS011;15918;51.270;6.522;2022-07-10T13:59:12;5.60;;;2.45;;
28762;SDS011;15918;51.270;6.522;2022-07-10T14:01:38;5.20;;;3.05;;
28762;SDS011;15918;51.270;6.522;2022-07-10T14:04:03;6.45;;;2.58;;
28762;SDS011;15918;51.270;6.522;2022-07-10T14:06:29;8.20;;;2.55;;
28762;SDS011;15918;51.270;6.522;2022-07-10T14:08:55;5.18;;;2.10;;
28762;SDS011;15918;51.270;6.522;2022-07-10T14:11:21;4.63;;;2.25;;
28762;SDS011;15918;51.270;6.522;2022-07-10T14:13:46;4.65;;;2.38;;
28762;SDS011;15918;51.270;6.522;2022-07-10T14:16:12;4.93;;;2.45;;
28762;SDS011;15918;51.270;6.522;2022-07-10T14:18:38;4.43;;;2.25;;
28762;SDS011;15918;51.270;6.522;2022-07-10T14:21:06;5.18;;;2.50;;
28762;SDS011;15918;51.270;6.522;2022-07-10T14:23:36;3.67;;;2.55;;
28762;SDS011;15918;51.270;6.522;2022-07-10T14:26:03;3.78;;;2.50;;
28762;SDS011;15918;51.270;6.522;2022-07-10T14:28:31;5.47;;;2.13;;
28762;SDS011;15918;51.270;6.522;2022-07-10T14:30:57;5.30;;;2.35;;
28762;SDS011;15918;51.270;6.522;2022-07-10T14:33:25;3.63;;;2.30;;
28762;SDS011;15918;51.270;6.522;2022-07-10T14:35:51;3.25;;;2.13;;
28762;SDS011;15918;51.270;6.522;2022-07-10T14:38:16;4.07;;;2.10;;
28762;SDS011;15918;51.270;6.522;2022-07-10T14:40:42;4.20;;;2.40;;
28762;SDS011;15918;51.270;6.522;2022-07-10T14:43:08;3.17;;;1.73;;
28762;SDS011;15918;51.270;6.522;2022-07-10T14:45:33;5.72;;;2.20;;
28762;SDS011;15918;51.270;6.522;2022-07-10T14:47:59;5.85;;;2.20;;
28762;SDS011;15918;51.270;6.522;2022-07-10T14:50:25;3.55;;;1.92;;
28762;SDS011;15918;51.270;6.522;2022-07-10T14:52:51;3.70;;;1.88;;
28762;SDS011;15918;51.270;6.522;2022-07-10T14:55:16;5.68;;;2.03;;
28762;SDS011;15918;51.270;6.522;2022-07-10T14:57:43;4.47;;;2.00;;
28762;SDS011;15918;51.270;6.522;2022-07-10T15:00:08;3.83;;;2.20;;
28762;SDS011;15918;51.270;6.522;2022-07-10T15:02:34;3.42;;;1.80;;
28762;SDS011;15918;51.270;6.522;2022-07-10T15:05:00;4.30;;;1.90;;
28762;SDS011;15918;51.270;6.522;2022-07-10T15:07:27;8.30;;;2.05;;
28762;SDS011;15918;51.270;6.522;2022-07-10T15:09:53;3.65;;;2.08;;
28762;SDS011;15918;51.270;6.522;2022-07-10T15:12:19;2.97;;;2.35;;
28762;SDS011;15918;51.270;6.522;2022-07-10T15:14:45;3.30;;;1.80;;
28762;SDS011;15918;51.270;6.522;2022-07-10T15:17:11;3.72;;;2.08;;
28762;SDS011;15918;51.270;6.522;2022-07-10T15:19:37;4.13;;;1.80;;
28762;SDS011;15918;51.270;6.522;2022-07-10T15:22:03;3.47;;;1.88;;
28762;SDS011;15918;51.270;6.522;2022-07-10T15:24:29;4.85;;;2.05;;
28762;SDS011;15918;51.270;6.522;2022-07-10T15:26:54;4.07;;;1.80;;
28762;SDS011;15918;51.270;6.522;2022-07-10T15:29:20;6.72;;;1.70;;
28762;SDS011;15918;51.270;6.522;2022-07-10T15:31:49;3.42;;;1.67;;
28762;SDS011;15918;51.270;6.522;2022-07-10T15:34:15;2.53;;;1.67;;
28762;SDS011;15918;51.270;6.522;2022-07-10T15:36:41;3.40;;;1.35;;
28762;SDS011;15918;51.270;6.522;2022-07-10T15:39:07;2.15;;;1.50;;
28762;SDS011;15918;51.270;6.522;2022-07-10T15:41:34;5.78;;;1.80;;